createdAt,value
2019-02-27T00:01:36.543Z,5.85
2019-02-27T00:04:07.935Z,5.65
2019-02-27T00:06:39.388Z,5.37
2019-02-27T00:09:10.624Z,5.10
2019-02-27T00:11:45.842Z,5.90
2019-02-27T00:14:15.066Z,5.22
2019-02-27T00:16:46.509Z,5.20
2019-02-27T00:21:48.487Z,5.08
2019-02-27T00:24:19.422Z,5.47
2019-02-27T00:29:20.992Z,5.70
2019-02-27T00:34:22.868Z,5.53
2019-02-27T00:36:54.236Z,5.12
2019-02-27T00:39:25.674Z,5.78
2019-02-27T00:41:57.115Z,5.67
2019-02-27T00:44:28.568Z,5.58
2019-02-27T00:49:32.323Z,5.28
2019-02-27T00:52:04.504Z,5.40
2019-02-27T00:54:36.322Z,6.15
2019-02-27T00:59:38.195Z,5.65
2019-02-27T01:02:09.849Z,5.78
2019-02-27T01:04:41.199Z,5.75
2019-02-27T01:07:12.647Z,5.90
2019-02-27T01:09:43.891Z,6.12
2019-02-27T01:12:15.338Z,6.45
2019-02-27T01:17:16.985Z,5.62
2019-02-27T01:19:48.561Z,6.00
2019-02-27T01:24:50.688Z,6.28
2019-02-27T01:27:21.786Z,6.33
2019-02-27T01:29:53.235Z,5.83
2019-02-27T01:32:24.486Z,5.12
2019-02-27T01:37:31.663Z,5.55
2019-02-27T01:40:02.317Z,5.37
2019-02-27T01:42:33.867Z,5.65
2019-02-27T01:50:29.719Z,5.00
2019-02-27T01:53:07.116Z,5.12
2019-02-27T01:55:36.110Z,6.03
2019-02-27T01:58:09.561Z,5.55
2019-02-27T02:00:40.445Z,5.22
2019-02-27T02:03:13.687Z,6.15
2019-02-27T02:05:45.982Z,5.62
2019-02-27T02:10:47.669Z,5.17
2019-02-27T02:16:03.266Z,4.95
2019-02-27T02:19:05.413Z,5.25
2019-02-27T02:21:48.864Z,4.45
2019-02-27T02:24:41.626Z,4.60
2019-02-27T02:27:27.505Z,4.90
2019-02-27T02:30:29.355Z,4.55
2019-02-27T02:33:09.731Z,4.85
2019-02-27T02:36:05.447Z,4.22
2019-02-27T02:38:48.874Z,4.92
2019-02-27T02:41:46.259Z,4.92
2019-02-27T02:44:25.022Z,4.65
2019-02-27T02:47:21.038Z,4.10
2019-02-27T02:50:19.873Z,4.80
2019-02-27T02:52:57.263Z,4.37
2019-02-27T02:55:35.164Z,4.42
2019-02-27T02:58:11.564Z,4.45
2019-02-27T03:00:48.512Z,4.22
2019-02-27T03:03:41.507Z,4.15
2019-02-27T03:06:46.559Z,4.42
2019-02-27T03:09:21.440Z,4.97
2019-02-27T03:12:18.894Z,4.75
2019-02-27T03:15:02.528Z,4.67
2019-02-27T03:17:56.620Z,4.70
2019-02-27T03:20:37.071Z,5.00
2019-02-27T03:23:40.377Z,4.90
2019-02-27T03:26:23.900Z,5.03
2019-02-27T03:29:22.385Z,4.60
2019-02-27T03:32:10.838Z,4.97
2019-02-27T03:34:51.710Z,4.37
2019-02-27T03:37:38.409Z,5.00
2019-02-27T03:40:45.140Z,4.10
2019-02-27T03:43:46.702Z,4.55
2019-02-27T03:46:30.412Z,4.37
2019-02-27T03:49:07.879Z,4.17
2019-02-27T03:51:48.742Z,4.70
2019-02-27T03:54:35.381Z,4.53
2019-02-27T03:57:26.635Z,4.58
2019-02-27T04:00:27.194Z,4.28
2019-02-27T04:03:23.123Z,5.10
2019-02-27T04:06:12.179Z,4.60
2019-02-27T04:08:57.050Z,4.72
2019-02-27T04:11:28.104Z,4.53
2019-02-27T04:14:04.648Z,5.08
2019-02-27T04:16:32.536Z,4.40
2019-02-27T04:19:05.121Z,4.45
2019-02-27T04:21:36.343Z,4.37
2019-02-27T04:26:41.642Z,4.45
2019-02-27T04:29:10.800Z,4.83
2019-02-27T04:31:43.372Z,5.05
2019-02-27T04:36:47.288Z,9.43
2019-02-27T04:39:19.156Z,6.45
2019-02-27T04:41:51.972Z,7.85
2019-02-27T04:44:23.600Z,7.83
2019-02-27T04:46:55.618Z,7.50
2019-02-27T04:49:26.907Z,7.05
2019-02-27T04:51:58.359Z,5.78
2019-02-27T04:54:30.146Z,6.45
2019-02-27T04:57:01.389Z,6.20
2019-02-27T04:59:33.014Z,6.47
2019-02-27T05:02:05.338Z,7.85
2019-02-27T05:04:36.864Z,6.67
2019-02-27T05:07:08.390Z,7.35
2019-02-27T05:09:41.267Z,9.40
2019-02-27T05:12:13.643Z,8.08
2019-02-27T05:14:44.991Z,8.60
2019-02-27T05:17:21.164Z,7.80
2019-02-27T05:19:52.065Z,8.18
2019-02-27T05:22:26.422Z,8.55
2019-02-27T05:24:57.056Z,11.12
2019-02-27T05:27:28.491Z,9.05
2019-02-27T05:30:00.193Z,7.47
2019-02-27T05:32:31.902Z,7.25
2019-02-27T05:35:03.349Z,8.83
2019-02-27T05:37:36.106Z,7.58
2019-02-27T05:40:09.773Z,8.48
2019-02-27T05:42:40.975Z,8.10
2019-02-27T05:45:13.353Z,8.73
2019-02-27T05:47:45.960Z,8.98
2019-02-27T05:50:17.166Z,9.30
2019-02-27T05:52:49.672Z,8.13
2019-02-27T05:55:20.983Z,7.40
2019-02-27T05:57:52.434Z,7.87
2019-02-27T06:00:23.691Z,7.78
2019-02-27T06:02:56.859Z,7.83
2019-02-27T06:05:28.524Z,8.33
2019-02-27T06:10:32.152Z,6.97
2019-02-27T06:15:33.816Z,7.37
2019-02-27T06:18:05.773Z,6.58
2019-02-27T06:20:38.945Z,6.70
2019-02-27T06:23:12.055Z,6.50
2019-02-27T06:25:43.300Z,8.00
2019-02-27T06:28:18.521Z,8.45
2019-02-27T06:30:47.849Z,8.98
2019-02-27T06:33:19.493Z,10.25
2019-02-27T06:35:51.047Z,10.03
2019-02-27T06:38:25.018Z,11.85
2019-02-27T06:40:55.998Z,9.63
2019-02-27T06:43:27.932Z,7.03
2019-02-27T06:45:59.311Z,7.75
2019-02-27T06:48:30.864Z,7.55
2019-02-27T06:53:33.046Z,6.70
2019-02-27T06:56:04.429Z,5.95
2019-02-27T06:58:35.875Z,6.90
2019-02-27T07:03:39.904Z,6.25
2019-02-27T07:06:11.217Z,7.00
2019-02-27T07:08:42.662Z,6.60
2019-02-27T07:11:14.218Z,6.87
2019-02-27T07:13:47.112Z,6.75
2019-02-27T07:16:20.544Z,5.67
2019-02-27T07:18:52.156Z,5.97
2019-02-27T07:23:57.700Z,6.65
2019-02-27T07:26:27.829Z,7.10
2019-02-27T07:28:59.487Z,6.17
2019-02-27T07:31:30.833Z,6.20
2019-02-27T07:34:02.181Z,5.90
2019-02-27T07:36:35.979Z,6.50
2019-02-27T07:39:09.486Z,8.43
2019-02-27T07:41:40.891Z,7.03
2019-02-27T07:44:12.500Z,7.75
2019-02-27T07:46:43.943Z,7.00
2019-02-27T07:51:45.922Z,7.08
2019-02-27T07:54:17.743Z,8.78
2019-02-27T07:56:49.025Z,12.53
2019-02-27T08:04:23.086Z,6.55
2019-02-27T08:06:54.428Z,9.53
2019-02-27T08:11:58.131Z,7.42
2019-02-27T08:14:29.276Z,8.30
2019-02-27T08:19:31.254Z,7.30
2019-02-27T08:22:02.916Z,7.45
2019-02-27T08:24:34.439Z,9.48
2019-02-27T08:27:09.584Z,8.00
2019-02-27T08:29:40.635Z,8.18
2019-02-27T08:32:12.395Z,8.88
2019-02-27T08:37:14.370Z,6.40
2019-02-27T08:39:46.131Z,5.92
2019-02-27T08:42:18.714Z,6.17
2019-02-27T08:47:20.589Z,7.50
2019-02-27T08:49:51.720Z,4.75
2019-02-27T08:52:23.375Z,4.87
2019-02-27T08:54:54.523Z,5.95
2019-02-27T08:57:26.274Z,7.10
2019-02-27T09:02:29.530Z,7.42
2019-02-27T09:05:01.225Z,5.03
2019-02-27T09:07:33.892Z,6.65
2019-02-27T09:10:08.747Z,6.45
2019-02-27T09:12:40.361Z,7.25
2019-02-27T09:15:13.247Z,8.68
2019-02-27T09:17:44.845Z,8.10
2019-02-27T09:22:52.762Z,6.95
2019-02-27T09:25:25.950Z,8.15
2019-02-27T09:27:57.500Z,10.90
2019-02-27T09:30:30.085Z,8.70
2019-02-27T09:33:01.540Z,7.40
2019-02-27T09:38:08.628Z,5.92
2019-02-27T09:40:40.084Z,9.23
2019-02-27T09:43:12.656Z,9.95
2019-02-27T09:48:16.715Z,8.40
2019-02-27T09:50:49.172Z,9.23
2019-02-27T09:53:21.528Z,11.48
2019-02-27T09:55:54.281Z,8.30
2019-02-27T09:58:26.174Z,11.50
2019-02-27T10:01:03.160Z,10.13
2019-02-27T10:03:34.853Z,9.70
2019-02-27T10:06:08.742Z,10.82
2019-02-27T10:08:39.391Z,10.98
2019-02-27T10:13:41.286Z,6.70
2019-02-27T10:16:12.870Z,6.10
2019-02-27T10:21:14.860Z,6.17
2019-02-27T10:26:19.531Z,5.30
2019-02-27T10:28:50.531Z,5.47
2019-02-27T10:31:21.977Z,6.62
2019-02-27T10:36:24.120Z,7.20
2019-02-27T10:38:55.816Z,6.40
2019-02-27T10:41:27.173Z,5.72
2019-02-27T10:43:58.635Z,5.95
2019-02-27T10:49:00.696Z,7.92
2019-02-27T10:51:31.937Z,6.70
2019-02-27T10:54:05.414Z,6.33
2019-02-27T10:56:36.993Z,6.00
2019-02-27T11:01:39.515Z,5.30
2019-02-27T11:04:10.731Z,5.42
2019-02-27T11:06:42.074Z,6.30
2019-02-27T11:09:24.771Z,6.53
2019-02-27T11:11:56.031Z,7.60
2019-02-27T11:14:31.670Z,6.05
2019-02-27T11:17:02.575Z,6.95
2019-02-27T11:19:35.139Z,5.97
2019-02-27T11:22:06.749Z,6.22
2019-02-27T11:24:38.000Z,6.78
2019-02-27T11:29:40.899Z,6.12
2019-02-27T11:32:12.445Z,6.42
2019-02-27T11:34:45.543Z,8.73
2019-02-27T11:37:17.123Z,10.20
2019-02-27T11:39:48.987Z,12.00
2019-02-27T11:44:50.958Z,6.62
2019-02-27T11:49:52.909Z,8.70
2019-02-27T11:54:56.832Z,5.15
2019-02-27T11:57:30.580Z,6.17
2019-02-27T12:00:01.365Z,7.28
2019-02-27T12:02:36.994Z,7.40
2019-02-27T12:05:09.220Z,6.17
2019-02-27T12:07:40.433Z,9.18
2019-02-27T12:10:18.362Z,6.45
2019-02-27T12:12:49.780Z,7.78
2019-02-27T12:17:51.962Z,7.62
2019-02-27T12:20:24.125Z,9.68
2019-02-27T12:22:55.266Z,8.50
2019-02-27T12:25:29.171Z,17.20
2019-02-27T12:28:00.556Z,7.92
2019-02-27T12:30:32.010Z,9.55
2019-02-27T12:33:04.048Z,8.93
2019-02-27T12:35:37.407Z,6.60
2019-02-27T12:38:08.989Z,9.15
2019-02-27T12:40:41.715Z,6.60
2019-02-27T12:43:17.359Z,7.47
2019-02-27T12:45:46.103Z,8.73
2019-02-27T12:48:17.762Z,8.03
2019-02-27T12:50:49.103Z,9.83
2019-02-27T12:53:21.999Z,10.08
2019-02-27T12:58:25.816Z,10.40
2019-02-27T13:03:31.477Z,11.83
2019-02-27T13:06:03.036Z,11.38
2019-02-27T13:08:34.277Z,9.78
2019-02-27T13:11:07.975Z,7.60
2019-02-27T13:13:39.022Z,6.42
2019-02-27T13:16:14.212Z,7.40
2019-02-27T13:18:43.871Z,6.17
2019-02-27T13:21:20.091Z,6.87
2019-02-27T13:23:48.724Z,9.13
2019-02-27T13:26:20.374Z,6.83
2019-02-27T13:28:51.709Z,7.85
2019-02-27T13:31:23.368Z,8.58
2019-02-27T13:33:55.535Z,11.53
2019-02-27T13:38:59.335Z,10.15
2019-02-27T13:41:30.706Z,10.32
2019-02-27T13:44:02.257Z,11.53
2019-02-27T13:46:34.017Z,10.38
2019-02-27T13:49:05.668Z,15.88
2019-02-27T13:51:40.314Z,11.00
2019-02-27T13:54:11.532Z,10.48
2019-02-27T13:56:42.898Z,12.00
2019-02-27T13:59:14.536Z,10.48
2019-02-27T14:04:21.913Z,9.33
2019-02-27T14:06:50.229Z,11.15
2019-02-27T14:09:22.085Z,11.70
2019-02-27T14:11:58.394Z,9.65
2019-02-27T14:14:28.257Z,9.93
2019-02-27T14:17:00.014Z,9.33
2019-02-27T14:19:31.494Z,8.80
2019-02-27T14:22:07.095Z,11.83
2019-02-27T14:24:38.273Z,10.03
2019-02-27T14:27:12.026Z,9.95
2019-02-27T14:29:42.695Z,10.00
2019-02-27T14:34:47.435Z,9.78
2019-02-27T14:39:49.311Z,9.50
2019-02-27T14:42:21.355Z,10.50
2019-02-27T14:44:52.516Z,11.28
2019-02-27T14:47:24.073Z,11.22
2019-02-27T14:49:55.950Z,11.10
2019-02-27T14:52:27.889Z,10.53
2019-02-27T14:55:02.977Z,11.57
2019-02-27T14:57:32.428Z,11.88
2019-02-27T15:02:37.647Z,10.88
2019-02-27T15:05:09.210Z,11.12
2019-02-27T15:07:41.613Z,11.35
2019-02-27T15:10:15.583Z,12.13
2019-02-27T15:12:46.969Z,13.53
2019-02-27T15:15:21.186Z,13.15
2019-02-27T15:17:52.531Z,13.55
2019-02-27T15:20:25.997Z,13.55
2019-02-27T15:22:57.280Z,13.32
2019-02-27T15:25:28.518Z,14.38
2019-02-27T15:28:00.043Z,14.55
2019-02-27T15:30:34.487Z,14.93
2019-02-27T15:33:05.952Z,16.87
2019-02-27T15:35:37.146Z,17.27
2019-02-27T15:38:11.539Z,20.57
2019-02-27T15:40:41.836Z,22.22
2019-02-27T15:43:16.980Z,22.58
2019-02-27T15:45:49.065Z,19.87
2019-02-27T15:48:20.381Z,20.20
2019-02-27T15:50:56.619Z,32.25
2019-02-27T15:53:26.652Z,25.10
2019-02-27T15:55:58.008Z,21.65
2019-02-27T15:58:29.469Z,19.40
2019-02-27T16:01:01.221Z,18.98
2019-02-27T16:03:35.314Z,19.32
2019-02-27T16:06:06.998Z,18.48
2019-02-27T16:08:38.835Z,15.72
2019-02-27T16:11:10.493Z,15.00
2019-02-27T16:13:43.079Z,14.50
2019-02-27T16:16:16.359Z,14.05
2019-02-27T16:18:49.454Z,13.48
2019-02-27T16:21:23.583Z,12.20
2019-02-27T16:23:55.016Z,12.53
2019-02-27T16:28:58.933Z,12.20
2019-02-27T16:31:30.588Z,13.40
2019-02-27T16:34:02.260Z,13.55
2019-02-27T16:39:07.384Z,12.55
2019-02-27T16:41:41.408Z,12.43
2019-02-27T16:44:14.010Z,11.83
2019-02-27T16:46:45.341Z,10.80
2019-02-27T16:49:16.780Z,12.00
2019-02-27T16:51:49.167Z,12.10
2019-02-27T16:54:20.905Z,11.48
2019-02-27T17:01:54.847Z,10.38
2019-02-27T17:04:26.201Z,11.60
2019-02-27T17:06:57.750Z,11.05
2019-02-27T17:09:29.423Z,10.72
2019-02-27T17:12:04.285Z,12.33
2019-02-27T17:14:33.947Z,11.93
2019-02-27T17:17:05.352Z,10.72
2019-02-27T17:19:37.773Z,11.97
2019-02-27T17:22:11.061Z,11.45
2019-02-27T17:24:43.017Z,10.35
2019-02-27T17:29:47.254Z,11.75
2019-02-27T17:32:18.808Z,11.00
2019-02-27T17:34:50.257Z,11.33
2019-02-27T17:39:54.379Z,11.38
2019-02-27T17:42:27.366Z,11.93
2019-02-27T17:44:58.507Z,14.45
2019-02-27T17:50:00.545Z,12.05
2019-02-27T17:52:32.652Z,12.70
2019-02-27T17:55:07.560Z,12.07
2019-02-27T17:57:38.841Z,13.83
2019-02-27T18:00:15.963Z,12.43
2019-02-27T18:02:48.418Z,17.42
2019-02-27T18:05:22.289Z,15.20
2019-02-27T18:07:53.902Z,15.00
2019-02-27T18:10:26.729Z,14.80
2019-02-27T18:12:58.824Z,16.93
2019-02-27T18:15:31.689Z,14.53
2019-02-27T18:18:07.198Z,18.32
2019-02-27T18:20:38.714Z,13.62
2019-02-27T18:28:13.541Z,11.05
2019-02-27T18:30:45.915Z,12.28
2019-02-27T18:33:17.685Z,12.60
2019-02-27T18:35:49.223Z,12.93
2019-02-27T18:40:51.835Z,12.70
2019-02-27T18:43:23.165Z,13.13
2019-02-27T18:45:54.418Z,11.97
2019-02-27T18:48:26.892Z,12.68
2019-02-27T18:50:59.416Z,12.95
2019-02-27T18:53:32.270Z,12.93
2019-02-27T18:56:03.485Z,12.98
2019-02-27T18:58:35.141Z,12.35
2019-02-27T19:01:09.966Z,12.90
2019-02-27T19:03:42.135Z,14.35
2019-02-27T19:06:14.323Z,13.80
2019-02-27T19:08:49.846Z,14.40
2019-02-27T19:11:22.410Z,13.13
2019-02-27T19:13:53.873Z,14.80
2019-02-27T19:16:25.976Z,15.03
2019-02-27T19:18:57.713Z,14.45
2019-02-27T19:21:32.756Z,14.47
2019-02-27T19:24:02.172Z,16.25
2019-02-27T19:29:05.747Z,16.07
2019-02-27T19:34:10.258Z,16.80
2019-02-27T19:36:42.162Z,14.55
2019-02-27T19:39:13.702Z,16.82
2019-02-27T19:41:45.356Z,16.15
2019-02-27T19:44:16.801Z,17.70
2019-02-27T19:46:48.456Z,17.70
2019-02-27T19:49:20.221Z,17.73
2019-02-27T19:51:54.913Z,26.10
2019-02-27T19:54:26.112Z,18.82
2019-02-27T19:56:58.965Z,16.48
2019-02-27T19:59:30.116Z,17.70
2019-02-27T20:04:35.264Z,17.80
2019-02-27T20:07:07.154Z,17.37
2019-02-27T20:09:38.877Z,19.62
2019-02-27T20:12:12.720Z,19.35
2019-02-27T20:14:43.429Z,21.52
2019-02-27T20:19:47.047Z,22.10
2019-02-27T20:22:19.730Z,23.90
2019-02-27T20:24:51.164Z,23.18
2019-02-27T20:27:25.908Z,25.17
2019-02-27T20:29:55.711Z,26.48
2019-02-27T20:32:28.531Z,25.75
2019-02-27T20:35:00.964Z,25.68
2019-02-27T20:37:34.089Z,24.90
2019-02-27T20:40:08.056Z,24.92
2019-02-27T20:42:39.310Z,26.55
2019-02-27T20:45:20.890Z,25.70
2019-02-27T20:50:43.580Z,22.00
2019-02-27T20:53:15.531Z,22.02
2019-02-27T20:55:46.867Z,22.37
2019-02-27T20:58:18.219Z,22.50
2019-02-27T21:00:49.969Z,22.37
2019-02-27T21:03:21.232Z,29.00
2019-02-27T21:05:52.800Z,22.42
2019-02-27T21:08:24.012Z,20.90
2019-02-27T21:10:56.413Z,20.70
2019-02-27T21:13:27.732Z,20.90
2019-02-27T21:15:58.981Z,22.70
2019-02-27T21:18:32.573Z,20.88
2019-02-27T21:21:05.479Z,19.55
2019-02-27T21:23:37.021Z,20.30
2019-02-27T21:26:08.578Z,21.30
2019-02-27T21:31:16.358Z,18.15
2019-02-27T21:36:20.911Z,19.60
2019-02-27T21:38:54.934Z,21.55
2019-02-27T21:41:28.213Z,20.30
2019-02-27T21:46:33.369Z,21.05
2019-02-27T21:49:05.346Z,20.82
2019-02-27T21:51:36.950Z,20.32
2019-02-27T21:54:09.249Z,23.40
2019-02-27T21:56:40.705Z,19.57
2019-02-27T21:59:14.120Z,20.00
2019-02-27T22:01:48.865Z,17.55
2019-02-27T22:04:21.312Z,16.42
2019-02-27T22:07:02.179Z,14.55
2019-02-27T22:09:33.837Z,14.50
2019-02-27T22:12:05.581Z,13.30
2019-02-27T22:14:37.659Z,13.85
2019-02-27T22:17:09.424Z,12.85
2019-02-27T22:19:41.383Z,14.15
2019-02-27T22:22:13.240Z,14.05
2019-02-27T22:24:46.837Z,12.53
2019-02-27T22:27:20.137Z,12.93
2019-02-27T22:29:52.284Z,12.40
2019-02-27T22:32:23.632Z,12.13
2019-02-27T22:34:54.877Z,11.85
2019-02-27T22:37:26.329Z,11.30
2019-02-27T22:42:28.612Z,12.25
2019-02-27T22:47:32.537Z,12.80
2019-02-27T22:50:06.934Z,11.08
2019-02-27T22:52:39.035Z,11.65
2019-02-27T22:57:41.820Z,12.47
2019-02-27T23:03:34.815Z,15.23
2019-02-27T23:06:09.206Z,15.13
2019-02-27T23:08:41.387Z,16.35
2019-02-27T23:11:13.134Z,16.48
2019-02-27T23:13:47.421Z,16.73
2019-02-27T23:16:20.242Z,17.75
2019-02-27T23:18:51.899Z,16.50
2019-02-27T23:23:53.559Z,15.63
2019-02-27T23:28:55.335Z,17.55
2019-02-27T23:31:27.008Z,16.37
2019-02-27T23:33:58.552Z,16.42
2019-02-27T23:36:30.095Z,17.17
2019-02-27T23:41:33.205Z,16.00
2019-02-27T23:44:05.466Z,16.55
2019-02-27T23:46:37.228Z,15.80
2019-02-27T23:49:08.468Z,16.23
2019-02-27T23:51:40.328Z,14.60
2019-02-27T23:54:11.776Z,15.20
2019-02-27T23:56:43.230Z,15.23
2019-02-27T23:59:14.882Z,16.17
